sensor_id;sensor_type;location;lat;lon;timestamp;pressure;altitude;pressure_sealevel;temperature;humidity
11525;BME280;5819;49.648;8.330;2022-07-26T00:01:14;100101.28;;;23.31;56.67
11525;BME280;5819;49.648;8.330;2022-07-26T00:03:42;100099.44;;;23.31;56.86
11525;BME280;5819;49.648;8.330;2022-07-26T00:06:10;100096.59;;;23.25;57.25
11525;BME280;5819;49.648;8.330;2022-07-26T00:08:38;100096.38;;;23.18;57.13
11525;BME280;5819;49.648;8.330;2022-07-26T00:11:06;100100.00;;;23.17;57.03
11525;BME280;5819;49.648;8.330;2022-07-26T00:13:36;100109.25;;;23.13;57.39
11525;BME280;5819;49.648;8.330;2022-07-26T00:16:05;100121.53;;;23.14;57.36
11525;BME280;5819;49.648;8.330;2022-07-26T00:18:33;100113.59;;;23.14;57.35
11525;BME280;5819;49.648;8.330;2022-07-26T00:21:01;100119.34;;;23.10;57.22
11525;BME280;5819;49.648;8.330;2022-07-26T00:23:32;100115.63;;;23.03;57.44
11525;BME280;5819;49.648;8.330;2022-07-26T00:26:00;100126.38;;;23.01;57.70
11525;BME280;5819;49.648;8.330;2022-07-26T00:28:28;100132.00;;;22.98;57.56
11525;BME280;5819;49.648;8.330;2022-07-26T00:30:58;100135.09;;;22.94;57.74
11525;BME280;5819;49.648;8.330;2022-07-26T00:33:26;100133.94;;;22.96;57.39
11525;BME280;5819;49.648;8.330;2022-07-26T00:35:55;100132.56;;;22.92;57.61
11525;BME280;5819;49.648;8.330;2022-07-26T00:38:23;100134.25;;;22.93;57.34
11525;BME280;5819;49.648;8.330;2022-07-26T00:40:52;100133.09;;;22.78;57.86
11525;BME280;5819;49.648;8.330;2022-07-26T00:43:20;100138.13;;;22.71;57.73
11525;BME280;5819;49.648;8.330;2022-07-26T00:45:48;100130.03;;;22.73;58.42
11525;BME280;5819;49.648;8.330;2022-07-26T00:48:17;100137.00;;;22.47;59.06
11525;BME280;5819;49.648;8.330;2022-07-26T00:50:45;100142.44;;;22.45;59.39
11525;BME280;5819;49.648;8.330;2022-07-26T00:53:14;100143.69;;;22.41;59.83
11525;BME280;5819;49.648;8.330;2022-07-26T00:55:42;100138.19;;;22.25;60.25
11525;BME280;5819;49.648;8.330;2022-07-26T00:58:10;100136.94;;;22.19;60.13
11525;BME280;5819;49.648;8.330;2022-07-26T01:00:39;100142.13;;;22.11;60.79
11525;BME280;5819;49.648;8.330;2022-07-26T01:03:07;100147.03;;;22.06;60.99
11525;BME280;5819;49.648;8.330;2022-07-26T01:05:37;100154.31;;;21.95;60.99
11525;BME280;5819;49.648;8.330;2022-07-26T01:08:05;100147.44;;;22.02;60.77
11525;BME280;5819;49.648;8.330;2022-07-26T01:10:33;100141.59;;;21.98;61.15
11525;BME280;5819;49.648;8.330;2022-07-26T01:13:01;100153.69;;;21.91;61.41
11525;BME280;5819;49.648;8.330;2022-07-26T01:15:29;100157.50;;;21.98;61.18
11525;BME280;5819;49.648;8.330;2022-07-26T01:17:57;100159.88;;;21.91;61.34
11525;BME280;5819;49.648;8.330;2022-07-26T01:20:25;100159.03;;;22.01;60.87
11525;BME280;5819;49.648;8.330;2022-07-26T01:22:54;100159.03;;;22.01;60.87
11525;BME280;5819;49.648;8.330;2022-07-26T01:25:29;100158.31;;;21.89;61.04
11525;BME280;5819;49.648;8.330;2022-07-26T01:27:57;100163.63;;;21.89;60.93
11525;BME280;5819;49.648;8.330;2022-07-26T01:30:25;100155.53;;;21.81;61.65
11525;BME280;5819;49.648;8.330;2022-07-26T01:32:54;100157.47;;;21.79;61.46
11525;BME280;5819;49.648;8.330;2022-07-26T01:35:22;100161.81;;;21.80;61.61
11525;BME280;5819;49.648;8.330;2022-07-26T01:37:56;100161.66;;;21.81;61.73
11525;BME280;5819;49.648;8.330;2022-07-26T01:40:24;100166.84;;;21.64;62.49
11525;BME280;5819;49.648;8.330;2022-07-26T01:42:52;100157.38;;;21.61;62.58
11525;BME280;5819;49.648;8.330;2022-07-26T01:45:20;100162.63;;;21.71;62.34
11525;BME280;5819;49.648;8.330;2022-07-26T01:47:48;100175.75;;;21.63;62.58
11525;BME280;5819;49.648;8.330;2022-07-26T01:50:17;100171.72;;;21.68;62.27
11525;BME280;5819;49.648;8.330;2022-07-26T01:52:45;100176.75;;;21.62;62.37
11525;BME280;5819;49.648;8.330;2022-07-26T01:55:14;100180.50;;;21.50;63.05
11525;BME280;5819;49.648;8.330;2022-07-26T01:57:43;100179.25;;;21.34;63.52
11525;BME280;5819;49.648;8.330;2022-07-26T02:00:12;100186.50;;;21.42;63.43
11525;BME280;5819;49.648;8.330;2022-07-26T02:02:40;100183.13;;;21.30;63.53
11525;BME280;5819;49.648;8.330;2022-07-26T02:05:09;100187.44;;;21.22;64.24
11525;BME280;5819;49.648;8.330;2022-07-26T02:07:39;100183.91;;;21.12;64.05
11525;BME280;5819;49.648;8.330;2022-07-26T02:10:11;100179.34;;;21.14;63.93
11525;BME280;5819;49.648;8.330;2022-07-26T02:12:41;100180.59;;;21.19;63.66
11525;BME280;5819;49.648;8.330;2022-07-26T02:15:11;100175.97;;;21.12;64.18
11525;BME280;5819;49.648;8.330;2022-07-26T02:17:40;100185.63;;;21.22;63.25
11525;BME280;5819;49.648;8.330;2022-07-26T02:20:09;100182.84;;;21.14;63.71
11525;BME280;5819;49.648;8.330;2022-07-26T02:22:37;100190.91;;;21.32;63.30
11525;BME280;5819;49.648;8.330;2022-07-26T02:25:05;100192.72;;;21.31;62.69
11525;BME280;5819;49.648;8.330;2022-07-26T02:27:34;100182.28;;;21.30;62.83
11525;BME280;5819;49.648;8.330;2022-07-26T02:30:03;100184.22;;;21.28;62.71
11525;BME280;5819;49.648;8.330;2022-07-26T02:32:31;100184.78;;;21.22;62.95
11525;BME280;5819;49.648;8.330;2022-07-26T02:35:00;100189.53;;;21.18;62.99
11525;BME280;5819;49.648;8.330;2022-07-26T02:37:28;100191.72;;;21.23;63.00
11525;BME280;5819;49.648;8.330;2022-07-26T02:40:03;100185.78;;;21.30;62.83
11525;BME280;5819;49.648;8.330;2022-07-26T02:42:31;100189.41;;;21.29;62.79
11525;BME280;5819;49.648;8.330;2022-07-26T02:44:59;100181.47;;;21.29;62.66
11525;BME280;5819;49.648;8.330;2022-07-26T02:47:28;100186.34;;;21.43;62.23
11525;BME280;5819;49.648;8.330;2022-07-26T02:49:58;100182.69;;;21.35;62.48
11525;BME280;5819;49.648;8.330;2022-07-26T02:52:26;100185.63;;;21.22;62.88
11525;BME280;5819;49.648;8.330;2022-07-26T02:54:54;100186.81;;;21.09;62.92
11525;BME280;5819;49.648;8.330;2022-07-26T02:57:23;100179.84;;;20.98;63.48
11525;BME280;5819;49.648;8.330;2022-07-26T02:59:51;100179.53;;;20.91;63.65
11525;BME280;5819;49.648;8.330;2022-07-26T03:02:19;100180.38;;;20.92;63.69
11525;BME280;5819;49.648;8.330;2022-07-26T03:04:49;100183.00;;;20.92;63.37
11525;BME280;5819;49.648;8.330;2022-07-26T03:07:17;100183.81;;;20.83;63.52
11525;BME280;5819;49.648;8.330;2022-07-26T03:09:45;100182.28;;;20.80;63.76
11525;BME280;5819;49.648;8.330;2022-07-26T03:12:14;100191.63;;;20.84;63.75
11525;BME280;5819;49.648;8.330;2022-07-26T03:14:42;100182.00;;;20.83;63.85
11525;BME280;5819;49.648;8.330;2022-07-26T03:17:11;100187.41;;;20.72;64.61
11525;BME280;5819;49.648;8.330;2022-07-26T03:19:39;100185.03;;;20.69;64.85
11525;BME280;5819;49.648;8.330;2022-07-26T03:22:09;100190.00;;;20.63;65.14
11525;BME280;5819;49.648;8.330;2022-07-26T03:24:37;100193.56;;;20.52;65.21
11525;BME280;5819;49.648;8.330;2022-07-26T03:27:05;100197.28;;;20.40;66.08
11525;BME280;5819;49.648;8.330;2022-07-26T03:29:33;100194.75;;;20.38;66.22
11525;BME280;5819;49.648;8.330;2022-07-26T03:32:01;100196.97;;;20.33;66.33
11525;BME280;5819;49.648;8.330;2022-07-26T03:34:30;100197.09;;;20.32;66.14
11525;BME280;5819;49.648;8.330;2022-07-26T03:36:58;100187.66;;;20.18;66.46
11525;BME280;5819;49.648;8.330;2022-07-26T03:39:27;100185.16;;;20.17;67.03
11525;BME280;5819;49.648;8.330;2022-07-26T03:41:55;100188.31;;;20.10;66.82
11525;BME280;5819;49.648;8.330;2022-07-26T03:44:23;100190.56;;;19.94;67.43
11525;BME280;5819;49.648;8.330;2022-07-26T03:46:51;100193.47;;;19.91;66.97
11525;BME280;5819;49.648;8.330;2022-07-26T03:49:19;100193.25;;;19.83;67.27
11525;BME280;5819;49.648;8.330;2022-07-26T03:51:47;100191.53;;;19.93;66.91
11525;BME280;5819;49.648;8.330;2022-07-26T03:54:15;100194.31;;;19.92;66.98
11525;BME280;5819;49.648;8.330;2022-07-26T03:56:44;100194.31;;;19.92;67.10
11525;BME280;5819;49.648;8.330;2022-07-26T03:59:11;100198.81;;;20.01;66.35
11525;BME280;5819;49.648;8.330;2022-07-26T04:01:40;100197.69;;;19.83;67.20
11525;BME280;5819;49.648;8.330;2022-07-26T04:04:09;100204.56;;;19.74;67.26
11525;BME280;5819;49.648;8.330;2022-07-26T04:06:38;100203.66;;;19.64;67.62
11525;BME280;5819;49.648;8.330;2022-07-26T04:09:08;100209.69;;;19.55;67.91
11525;BME280;5819;49.648;8.330;2022-07-26T04:11:36;100205.84;;;19.59;68.37
11525;BME280;5819;49.648;8.330;2022-07-26T04:14:07;100213.19;;;19.55;68.20
11525;BME280;5819;49.648;8.330;2022-07-26T04:16:36;100210.78;;;19.52;68.39
11525;BME280;5819;49.648;8.330;2022-07-26T04:19:09;100216.66;;;19.56;68.19
11525;BME280;5819;49.648;8.330;2022-07-26T04:21:37;100219.88;;;19.59;67.54
11525;BME280;5819;49.648;8.330;2022-07-26T04:24:06;100221.84;;;19.78;67.11
11525;BME280;5819;49.648;8.330;2022-07-26T04:26:34;100222.31;;;19.83;66.73
11525;BME280;5819;49.648;8.330;2022-07-26T04:29:02;100225.31;;;19.79;66.74
11525;BME280;5819;49.648;8.330;2022-07-26T04:31:33;100220.03;;;19.79;67.02
11525;BME280;5819;49.648;8.330;2022-07-26T04:34:02;100228.47;;;19.73;67.21
11525;BME280;5819;49.648;8.330;2022-07-26T04:36:30;100226.69;;;19.73;67.01
11525;BME280;5819;49.648;8.330;2022-07-26T04:38:59;100234.59;;;19.73;67.31
11525;BME280;5819;49.648;8.330;2022-07-26T04:41:27;100236.03;;;19.77;66.85
11525;BME280;5819;49.648;8.330;2022-07-26T04:43:55;100234.66;;;19.83;66.91
11525;BME280;5819;49.648;8.330;2022-07-26T04:46:23;100245.59;;;19.78;66.79
11525;BME280;5819;49.648;8.330;2022-07-26T04:48:53;100242.06;;;19.68;67.07
11525;BME280;5819;49.648;8.330;2022-07-26T04:51:21;100244.38;;;19.61;67.86
11525;BME280;5819;49.648;8.330;2022-07-26T04:53:49;100249.00;;;19.69;67.38
11525;BME280;5819;49.648;8.330;2022-07-26T04:56:17;100250.22;;;19.65;67.57
11525;BME280;5819;49.648;8.330;2022-07-26T04:58:45;100246.06;;;19.51;67.82
11525;BME280;5819;49.648;8.330;2022-07-26T05:01:13;100247.38;;;19.46;67.95
11525;BME280;5819;49.648;8.330;2022-07-26T05:03:41;100244.03;;;19.44;68.35
11525;BME280;5819;49.648;8.330;2022-07-26T05:06:11;100244.75;;;19.46;68.43
11525;BME280;5819;49.648;8.330;2022-07-26T05:08:39;100254.81;;;19.41;68.61
11525;BME280;5819;49.648;8.330;2022-07-26T05:11:09;100256.03;;;19.48;68.38
11525;BME280;5819;49.648;8.330;2022-07-26T05:13:36;100256.03;;;19.48;68.23
11525;BME280;5819;49.648;8.330;2022-07-26T05:16:05;100261.03;;;19.51;68.10
11525;BME280;5819;49.648;8.330;2022-07-26T05:18:37;100265.63;;;19.49;67.88
11525;BME280;5819;49.648;8.330;2022-07-26T05:21:16;100259.72;;;19.56;67.90
11525;BME280;5819;49.648;8.330;2022-07-26T05:23:45;100268.34;;;19.58;68.22
11525;BME280;5819;49.648;8.330;2022-07-26T05:26:13;100269.75;;;19.74;67.43
11525;BME280;5819;49.648;8.330;2022-07-26T05:28:41;100277.25;;;19.89;67.15
11525;BME280;5819;49.648;8.330;2022-07-26T05:31:09;100276.38;;;20.00;66.96
11525;BME280;5819;49.648;8.330;2022-07-26T05:33:37;100278.47;;;20.06;67.01
11525;BME280;5819;49.648;8.330;2022-07-26T05:36:05;100277.88;;;20.14;66.75
11525;BME280;5819;49.648;8.330;2022-07-26T05:38:35;100283.47;;;20.20;66.12
11525;BME280;5819;49.648;8.330;2022-07-26T05:41:03;100278.06;;;20.22;66.35
11525;BME280;5819;49.648;8.330;2022-07-26T05:43:31;100285.22;;;20.31;66.11
11525;BME280;5819;49.648;8.330;2022-07-26T05:46:08;100284.16;;;20.22;66.06
11525;BME280;5819;49.648;8.330;2022-07-26T05:48:37;100280.81;;;20.20;66.16
11525;BME280;5819;49.648;8.330;2022-07-26T05:51:05;100282.75;;;20.29;66.04
11525;BME280;5819;49.648;8.330;2022-07-26T05:53:35;100290.34;;;20.43;64.60
11525;BME280;5819;49.648;8.330;2022-07-26T05:56:05;100293.69;;;20.45;63.72
11525;BME280;5819;49.648;8.330;2022-07-26T05:58:33;100288.91;;;20.60;62.90
11525;BME280;5819;49.648;8.330;2022-07-26T06:01:01;100289.00;;;20.79;62.72
11525;BME280;5819;49.648;8.330;2022-07-26T06:03:29;100294.25;;;20.70;62.85
11525;BME280;5819;49.648;8.330;2022-07-26T06:05:58;100293.81;;;20.65;62.56
11525;BME280;5819;49.648;8.330;2022-07-26T06:08:26;100284.44;;;20.81;62.17
11525;BME280;5819;49.648;8.330;2022-07-26T06:10:56;100297.91;;;20.78;61.70
11525;BME280;5819;49.648;8.330;2022-07-26T06:13:24;100291.72;;;20.89;61.90
11525;BME280;5819;49.648;8.330;2022-07-26T06:15:55;100298.09;;;20.86;61.90
11525;BME280;5819;49.648;8.330;2022-07-26T06:18:23;100295.22;;;20.99;60.61
11525;BME280;5819;49.648;8.330;2022-07-26T06:20:51;100288.53;;;20.95;60.91
11525;BME280;5819;49.648;8.330;2022-07-26T06:23:19;100292.97;;;20.94;61.39
11525;BME280;5819;49.648;8.330;2022-07-26T06:26:02;100292.41;;;20.91;61.61
11525;BME280;5819;49.648;8.330;2022-07-26T06:28:31;100294.97;;;21.02;61.59
11525;BME280;5819;49.648;8.330;2022-07-26T06:30:59;100291.75;;;20.98;60.84
11525;BME280;5819;49.648;8.330;2022-07-26T06:33:27;100295.94;;;21.01;61.32
11525;BME280;5819;49.648;8.330;2022-07-26T06:35:55;100305.13;;;21.27;60.15
11525;BME280;5819;49.648;8.330;2022-07-26T06:38:24;100305.56;;;21.32;60.70
11525;BME280;5819;49.648;8.330;2022-07-26T06:40:52;100303.41;;;21.17;60.72
11525;BME280;5819;49.648;8.330;2022-07-26T06:43:21;100300.38;;;21.21;60.85
11525;BME280;5819;49.648;8.330;2022-07-26T06:45:49;100304.56;;;21.24;60.96
11525;BME280;5819;49.648;8.330;2022-07-26T06:48:18;100305.66;;;21.21;60.74
11525;BME280;5819;49.648;8.330;2022-07-26T06:50:47;100308.59;;;21.28;59.80
11525;BME280;5819;49.648;8.330;2022-07-26T06:53:15;100308.50;;;21.39;59.97
11525;BME280;5819;49.648;8.330;2022-07-26T06:55:43;100311.13;;;21.39;59.70
11525;BME280;5819;49.648;8.330;2022-07-26T06:58:11;100306.31;;;21.54;60.39
11525;BME280;5819;49.648;8.330;2022-07-26T07:00:41;100307.19;;;21.73;59.26
11525;BME280;5819;49.648;8.330;2022-07-26T07:03:16;100310.13;;;21.89;58.63
11525;BME280;5819;49.648;8.330;2022-07-26T07:05:45;100314.72;;;21.87;59.19
11525;BME280;5819;49.648;8.330;2022-07-26T07:08:16;100313.72;;;21.69;59.09
11525;BME280;5819;49.648;8.330;2022-07-26T07:10:45;100317.72;;;21.44;59.63
11525;BME280;5819;49.648;8.330;2022-07-26T07:13:18;100307.03;;;21.65;59.51
11525;BME280;5819;49.648;8.330;2022-07-26T07:15:48;100313.88;;;21.87;59.22
11525;BME280;5819;49.648;8.330;2022-07-26T07:18:16;100304.59;;;21.92;58.77
11525;BME280;5819;49.648;8.330;2022-07-26T07:20:45;100309.75;;;21.94;58.86
11525;BME280;5819;49.648;8.330;2022-07-26T07:23:13;100304.84;;;21.89;59.07
11525;BME280;5819;49.648;8.330;2022-07-26T07:25:42;100306.53;;;22.00;58.71
11525;BME280;5819;49.648;8.330;2022-07-26T07:28:10;100306.00;;;22.06;58.79
11525;BME280;5819;49.648;8.330;2022-07-26T07:30:39;100308.78;;;22.14;58.29
11525;BME280;5819;49.648;8.330;2022-07-26T07:33:08;100300.69;;;22.06;59.10
11525;BME280;5819;49.648;8.330;2022-07-26T07:35:49;100304.97;;;21.88;58.62
11525;BME280;5819;49.648;8.330;2022-07-26T07:38:18;100291.06;;;21.96;58.56
11525;BME280;5819;49.648;8.330;2022-07-26T07:40:48;100305.03;;;21.98;58.37
11525;BME280;5819;49.648;8.330;2022-07-26T07:43:16;100298.06;;;22.06;58.25
11525;BME280;5819;49.648;8.330;2022-07-26T07:45:44;100299.69;;;22.07;58.44
11525;BME280;5819;49.648;8.330;2022-07-26T07:48:16;100294.53;;;22.34;57.87
11525;BME280;5819;49.648;8.330;2022-07-26T07:50:44;100297.28;;;22.52;56.67
11525;BME280;5819;49.648;8.330;2022-07-26T07:53:12;100301.03;;;22.59;56.35
11525;BME280;5819;49.648;8.330;2022-07-26T07:55:41;100296.84;;;22.66;56.76
11525;BME280;5819;49.648;8.330;2022-07-26T07:58:13;100299.06;;;22.80;56.64
11525;BME280;5819;49.648;8.330;2022-07-26T08:00:43;100297.66;;;22.86;56.33
11525;BME280;5819;49.648;8.330;2022-07-26T08:03:12;100290.88;;;22.74;56.98
11525;BME280;5819;49.648;8.330;2022-07-26T08:05:47;100290.16;;;23.09;56.02
11525;BME280;5819;49.648;8.330;2022-07-26T08:08:17;100285.66;;;23.19;55.38
11525;BME280;5819;49.648;8.330;2022-07-26T08:10:49;100297.09;;;23.19;54.57
11525;BME280;5819;49.648;8.330;2022-07-26T08:13:19;100291.22;;;23.53;54.92
11525;BME280;5819;49.648;8.330;2022-07-26T08:15:49;100282.22;;;23.09;55.29
11525;BME280;5819;49.648;8.330;2022-07-26T08:18:17;100290.88;;;23.11;55.38
11525;BME280;5819;49.648;8.330;2022-07-26T08:20:50;100286.13;;;23.32;55.39
11525;BME280;5819;49.648;8.330;2022-07-26T08:23:20;100287.19;;;23.21;55.03
11525;BME280;5819;49.648;8.330;2022-07-26T08:25:48;100296.22;;;23.01;54.98
11525;BME280;5819;49.648;8.330;2022-07-26T08:28:30;100293.66;;;23.09;55.11
11525;BME280;5819;49.648;8.330;2022-07-26T08:31:19;100288.81;;;22.95;55.47
11525;BME280;5819;49.648;8.330;2022-07-26T08:33:47;100288.47;;;23.17;55.33
11525;BME280;5819;49.648;8.330;2022-07-26T08:36:17;100294.19;;;23.40;54.19
11525;BME280;5819;49.648;8.330;2022-07-26T08:38:46;100300.59;;;23.92;53.64
11525;BME280;5819;49.648;8.330;2022-07-26T08:41:17;100301.88;;;23.70;53.58
11525;BME280;5819;49.648;8.330;2022-07-26T08:43:46;100303.16;;;23.84;53.49
11525;BME280;5819;49.648;8.330;2022-07-26T08:46:20;100301.63;;;24.27;52.17
11525;BME280;5819;49.648;8.330;2022-07-26T08:48:54;100290.38;;;24.58;51.79
11525;BME280;5819;49.648;8.330;2022-07-26T08:51:27;100301.41;;;24.71;50.84
11525;BME280;5819;49.648;8.330;2022-07-26T08:54:00;100294.97;;;25.00;49.82
11525;BME280;5819;49.648;8.330;2022-07-26T08:56:33;100299.69;;;25.14;48.94
11525;BME280;5819;49.648;8.330;2022-07-26T08:59:03;100300.66;;;24.79;50.53
11525;BME280;5819;49.648;8.330;2022-07-26T09:01:34;100302.66;;;24.59;49.39
11525;BME280;5819;49.648;8.330;2022-07-26T09:04:17;100304.25;;;24.70;50.34
11525;BME280;5819;49.648;8.330;2022-07-26T09:07:04;100308.94;;;24.50;50.09
11525;BME280;5819;49.648;8.330;2022-07-26T09:09:34;100305.31;;;24.16;51.26
11525;BME280;5819;49.648;8.330;2022-07-26T09:12:17;100301.50;;;24.36;50.79
11525;BME280;5819;49.648;8.330;2022-07-26T09:14:54;100310.56;;;24.26;51.36
11525;BME280;5819;49.648;8.330;2022-07-26T09:17:40;100316.41;;;24.29;51.46
11525;BME280;5819;49.648;8.330;2022-07-26T09:20:11;100317.06;;;24.49;51.07
11525;BME280;5819;49.648;8.330;2022-07-26T09:22:59;100303.56;;;25.28;48.27
11525;BME280;5819;49.648;8.330;2022-07-26T09:25:33;100303.97;;;25.49;47.73
11525;BME280;5819;49.648;8.330;2022-07-26T09:28:20;100298.75;;;25.73;47.97
11525;BME280;5819;49.648;8.330;2022-07-26T09:30:51;100301.66;;;25.46;47.82
11525;BME280;5819;49.648;8.330;2022-07-26T09:33:21;100303.91;;;25.67;48.54
11525;BME280;5819;49.648;8.330;2022-07-26T09:36:00;100311.28;;;25.05;48.87
11525;BME280;5819;49.648;8.330;2022-07-26T09:38:41;100313.28;;;24.51;49.57
11525;BME280;5819;49.648;8.330;2022-07-26T09:41:17;100296.28;;;24.70;49.64
11525;BME280;5819;49.648;8.330;2022-07-26T09:43:46;100310.81;;;25.43;47.33
11525;BME280;5819;49.648;8.330;2022-07-26T09:46:21;100314.78;;;24.80;48.22
11525;BME280;5819;49.648;8.330;2022-07-26T09:48:52;100312.66;;;24.40;49.45
11525;BME280;5819;49.648;8.330;2022-07-26T09:51:42;100311.31;;;24.79;49.11
11525;BME280;5819;49.648;8.330;2022-07-26T09:54:17;100304.59;;;25.85;46.54
11525;BME280;5819;49.648;8.330;2022-07-26T09:56:47;100298.09;;;26.76;44.87
11525;BME280;5819;49.648;8.330;2022-07-26T09:59:21;100305.84;;;26.23;45.65
11525;BME280;5819;49.648;8.330;2022-07-26T10:01:51;100297.75;;;25.74;47.85
11525;BME280;5819;49.648;8.330;2022-07-26T10:04:21;100305.34;;;26.35;46.55
11525;BME280;5819;49.648;8.330;2022-07-26T10:06:53;100295.13;;;29.59;39.09
11525;BME280;5819;49.648;8.330;2022-07-26T10:09:32;100286.88;;;32.55;35.18
11525;BME280;5819;49.648;8.330;2022-07-26T10:12:04;100291.47;;;30.24;38.32
11525;BME280;5819;49.648;8.330;2022-07-26T10:14:43;100311.72;;;27.53;42.19
11525;BME280;5819;49.648;8.330;2022-07-26T10:17:40;100306.00;;;26.37;43.78
11525;BME280;5819;49.648;8.330;2022-07-26T10:20:10;100287.72;;;28.58;41.29
11525;BME280;5819;49.648;8.330;2022-07-26T10:22:59;100286.78;;;33.08;33.00
11525;BME280;5819;49.648;8.330;2022-07-26T10:25:46;100297.13;;;29.36;39.54
11525;BME280;5819;49.648;8.330;2022-07-26T10:28:26;100299.91;;;27.78;41.26
11525;BME280;5819;49.648;8.330;2022-07-26T10:31:28;100305.16;;;26.45;44.47
11525;BME280;5819;49.648;8.330;2022-07-26T10:34:03;100307.47;;;26.07;45.10
11525;BME280;5819;49.648;8.330;2022-07-26T10:36:34;100297.78;;;25.82;45.77
11525;BME280;5819;49.648;8.330;2022-07-26T10:39:06;100307.59;;;25.74;44.91
11525;BME280;5819;49.648;8.330;2022-07-26T10:41:43;100303.00;;;28.35;40.68
11525;BME280;5819;49.648;8.330;2022-07-26T10:44:19;100291.22;;;32.76;34.04
11525;BME280;5819;49.648;8.330;2022-07-26T10:47:08;100289.75;;;34.45;30.87
11525;BME280;5819;49.648;8.330;2022-07-26T10:49:39;100289.66;;;36.08;29.93
11525;BME280;5819;49.648;8.330;2022-07-26T10:52:13;100285.44;;;32.53;33.89
11525;BME280;5819;49.648;8.330;2022-07-26T10:55:15;100293.72;;;29.63;37.65
11525;BME280;5819;49.648;8.330;2022-07-26T10:57:47;100292.34;;;27.81;40.24
11525;BME280;5819;49.648;8.330;2022-07-26T11:00:25;100287.34;;;27.09;42.15
11525;BME280;5819;49.648;8.330;2022-07-26T11:02:56;100290.44;;;26.89;43.64
11525;BME280;5819;49.648;8.330;2022-07-26T11:05:29;100283.81;;;28.98;39.64
11525;BME280;5819;49.648;8.330;2022-07-26T11:08:01;100277.25;;;29.15;40.21
11525;BME280;5819;49.648;8.330;2022-07-26T11:10:35;100276.97;;;28.29;41.92
11525;BME280;5819;49.648;8.330;2022-07-26T11:13:14;100280.94;;;27.65;42.45
11525;BME280;5819;49.648;8.330;2022-07-26T11:15:44;100278.28;;;27.26;42.82
11525;BME280;5819;49.648;8.330;2022-07-26T11:18:24;100276.50;;;27.10;42.46
11525;BME280;5819;49.648;8.330;2022-07-26T11:20:56;100271.38;;;26.92;43.08
11525;BME280;5819;49.648;8.330;2022-07-26T11:23:30;100279.50;;;26.44;43.63
11525;BME280;5819;49.648;8.330;2022-07-26T11:26:10;100275.13;;;26.19;44.17
11525;BME280;5819;49.648;8.330;2022-07-26T11:28:59;100279.28;;;26.13;44.55
11525;BME280;5819;49.648;8.330;2022-07-26T11:31:38;100279.16;;;26.31;43.90
11525;BME280;5819;49.648;8.330;2022-07-26T11:34:26;100276.63;;;26.62;42.04
11525;BME280;5819;49.648;8.330;2022-07-26T11:36:57;100272.84;;;26.40;42.78
11525;BME280;5819;49.648;8.330;2022-07-26T11:39:28;100283.94;;;26.76;42.39
11525;BME280;5819;49.648;8.330;2022-07-26T11:41:59;100279.56;;;26.99;42.93
11525;BME280;5819;49.648;8.330;2022-07-26T11:44:29;100281.53;;;27.05;43.70
11525;BME280;5819;49.648;8.330;2022-07-26T11:46:59;100272.66;;;27.13;44.10
11525;BME280;5819;49.648;8.330;2022-07-26T11:49:37;100262.56;;;29.62;39.80
11525;BME280;5819;49.648;8.330;2022-07-26T11:52:28;100268.69;;;33.28;33.92
11525;BME280;5819;49.648;8.330;2022-07-26T11:54:56;100277.97;;;32.48;34.60
11525;BME280;5819;49.648;8.330;2022-07-26T11:57:27;100286.47;;;29.42;37.91
11525;BME280;5819;49.648;8.330;2022-07-26T11:59:59;100285.44;;;28.18;39.71
11525;BME280;5819;49.648;8.330;2022-07-26T12:02:37;100285.84;;;27.53;41.81
11525;BME280;5819;49.648;8.330;2022-07-26T12:05:17;100280.22;;;27.93;40.55
11525;BME280;5819;49.648;8.330;2022-07-26T12:07:56;100277.47;;;28.32;40.77
11525;BME280;5819;49.648;8.330;2022-07-26T12:10:26;100276.97;;;28.06;41.06
11525;BME280;5819;49.648;8.330;2022-07-26T12:13:08;100267.41;;;28.49;41.29
11525;BME280;5819;49.648;8.330;2022-07-26T12:15:45;100271.78;;;32.08;35.54
11525;BME280;5819;49.648;8.330;2022-07-26T12:18:22;100271.41;;;34.28;31.66
11525;BME280;5819;49.648;8.330;2022-07-26T12:20:58;100268.56;;;35.39;29.18
11525;BME280;5819;49.648;8.330;2022-07-26T12:23:42;100268.88;;;32.23;33.74
11525;BME280;5819;49.648;8.330;2022-07-26T12:26:21;100275.06;;;29.91;37.45
11525;BME280;5819;49.648;8.330;2022-07-26T12:28:50;100263.31;;;28.91;39.14
11525;BME280;5819;49.648;8.330;2022-07-26T12:31:24;100267.19;;;30.10;37.89
11525;BME280;5819;49.648;8.330;2022-07-26T12:33:56;100268.31;;;28.79;39.07
11525;BME280;5819;49.648;8.330;2022-07-26T12:36:28;100246.78;;;29.52;37.71
11525;BME280;5819;49.648;8.330;2022-07-26T12:39:04;100256.19;;;28.68;38.85
11525;BME280;5819;49.648;8.330;2022-07-26T12:41:39;100253.41;;;29.06;38.26
11525;BME280;5819;49.648;8.330;2022-07-26T12:44:07;100251.25;;;30.51;36.67
11525;BME280;5819;49.648;8.330;2022-07-26T12:46:39;100252.81;;;29.75;36.97
11525;BME280;5819;49.648;8.330;2022-07-26T12:49:11;100249.50;;;29.23;37.86
11525;BME280;5819;49.648;8.330;2022-07-26T12:51:39;100249.41;;;30.31;37.08
11525;BME280;5819;49.648;8.330;2022-07-26T12:54:07;100253.44;;;30.20;36.47
11525;BME280;5819;49.648;8.330;2022-07-26T12:56:36;100251.38;;;28.64;39.20
11525;BME280;5819;49.648;8.330;2022-07-26T12:59:05;100261.28;;;28.26;40.43
11525;BME280;5819;49.648;8.330;2022-07-26T13:01:34;100251.97;;;27.76;40.69
11525;BME280;5819;49.648;8.330;2022-07-26T13:04:03;100247.59;;;27.53;41.07
11525;BME280;5819;49.648;8.330;2022-07-26T13:06:37;100251.78;;;27.16;42.53
11525;BME280;5819;49.648;8.330;2022-07-26T13:09:06;100233.66;;;30.21;37.38
11525;BME280;5819;49.648;8.330;2022-07-26T13:11:35;100235.41;;;29.50;38.82
11525;BME280;5819;49.648;8.330;2022-07-26T13:14:03;100240.69;;;28.78;39.15
11525;BME280;5819;49.648;8.330;2022-07-26T13:16:31;100236.50;;;28.47;39.75
11525;BME280;5819;49.648;8.330;2022-07-26T13:18:59;100227.72;;;29.83;37.25
11525;BME280;5819;49.648;8.330;2022-07-26T13:21:28;100234.66;;;31.97;34.18